Time;durP1;ratioP1;P1;durP2;ratioP2;P2;SDS_P1;SDS_P2;PMS_P1;PMS_P2;Temp;Humidity;BMP_temperature;BMP_pressure;BME280_temperature;BME280_humidity;BME280_pressure;Samples;Min_cycle;Max_cycle;Signal;HPM_P1;HPM_P2
2023/05/10 05:41:58;;;;;;;1.03;0.90;;;;;;;;;;5139647;27;20275;-80
2023/05/10 05:48:22;;;;;;;1.50;0.73;;;;;;;;;;5140091;27;20290;-79
2023/05/10 05:54:43;;;;;;;2.60;0.87;;;;;;;;;;5141087;27;20268;-80
2023/05/10 05:59:49;;;;;;;1.97;1.13;;;11.60;99.90;;;;;;5136958;27;20659;-81
2023/05/10 06:04:22;;;;;;;1.90;1.50;;;;;;;;;;5136417;27;20689;-81
2023/05/10 06:08:52;;;;;;;1.87;0.90;;;11.80;99.90;;;;;;5135609;27;20297;-75
2023/05/10 06:12:36;;;;;;;1.13;0.80;;;;;;;;;;5135673;27;20275;-80
2023/05/10 06:16:28;;;;;;;0.80;0.80;;;;;;;;;;5136337;27;20271;-79
2023/05/10 06:20:26;;;;;;;1.00;0.90;;;;;;;;;;5136544;27;20275;-80
2023/05/10 06:24:27;;;;;;;1.20;0.80;;;;;;;;;;5136528;27;20269;-80
2023/05/10 06:28:25;;;;;;;1.37;0.90;;;;;;;;;;5141305;27;20290;-80
2023/05/10 06:32:23;;;;;;;1.50;1.00;;;12.20;99.90;;;;;;5137502;27;20266;-80
2023/05/10 06:37:32;;;;;;;1.77;0.80;;;;;;;;;;5137120;27;20608;-80
2023/05/10 06:42:25;;;;;;;0.70;0.67;;;;;;;;;;5076997;28;20589;-80
2023/05/10 06:48:15;;;;;;;2.00;0.73;;;;;;;;;;5138419;27;20287;-79
2023/05/10 06:52:53;;;;;;;0.70;0.70;;;;;;;;;;5139051;27;20276;-79
2023/05/10 07:00:51;;;;;;;0.60;0.60;;;;;;;;;;5118286;27;20268;-79
2023/05/10 07:06:07;;;;;;;5.53;0.70;;;;;;;;;;5138208;27;20275;-79
2023/05/10 07:10:23;;;;;;;1.17;0.90;;;;;;;;;;5149816;27;20268;-80
2023/05/10 07:14:41;;;;;;;0.70;0.70;;;12.50;99.90;;;;;;5138265;27;20278;-79
2023/05/10 07:17:08;;;;;;;0.50;0.50;;;;;;;;;;5119220;28;20178;-79
2023/05/10 07:19:34;;;;;;;0.97;0.80;;;;;;;;;;5133060;28;20215;-79
2023/05/10 07:22:00;;;;;;;1.20;0.87;;;;;;;;;;5137347;28;20511;-80
2023/05/10 07:24:26;;;;;;;1.60;1.00;;;;;;;;;;5137194;28;20186;-79
2023/05/10 07:26:52;;;;;;;1.60;0.90;;;;;;;;;;5135319;28;20186;-79
2023/05/10 07:29:17;;;;;;;1.13;0.90;;;13.20;99.90;;;;;;5137415;28;20194;-79
2023/05/10 07:31:43;;;;;;;0.87;0.80;;;;;;;;;;5136908;28;20185;-79
2023/05/10 07:34:09;;;;;;;0.83;0.80;;;13.10;99.90;;;;;;5136620;28;20203;-80
2023/05/10 07:36:36;;;;;;;1.17;0.90;;;;;;;;;;5136571;28;20175;-80
2023/05/10 07:39:02;;;;;;;0.80;0.80;;;13.10;99.90;;;;;;5138011;28;20229;-80
2023/05/10 07:41:28;;;;;;;1.10;1.00;;;13.10;99.90;;;;;;5137373;28;20170;-80
2023/05/10 07:43:54;;;;;;;2.30;1.00;;;13.10;99.90;;;;;;5138124;27;20195;-80
2023/05/10 07:46:20;;;;;;;1.60;1.20;;;13.10;99.90;;;;;;5136588;27;20190;-80
2023/05/10 07:48:46;;;;;;;1.10;1.00;;;;;;;;;;5137609;27;20198;-80
2023/05/10 07:51:12;;;;;;;0.77;0.77;;;13.30;99.90;;;;;;5136688;28;20279;-79
2023/05/10 07:53:38;;;;;;;1.40;1.00;;;13.40;99.90;;;;;;5135849;28;20301;-80
2023/05/10 07:56:25;;;;;;;1.63;0.80;;;13.50;99.90;;;;;;5135288;28;20209;-79
2023/05/10 07:58:51;;;;;;;4.10;1.90;;;13.60;99.90;;;;;;5134998;28;20194;-80
2023/05/10 08:01:17;;;;;;;0.70;0.70;;;13.60;99.90;;;;;;5135664;28;20540;-80
2023/05/10 08:03:43;;;;;;;1.37;0.70;;;13.70;99.90;;;;;;5136713;27;20175;-79
2023/05/10 08:06:09;;;;;;;1.30;1.00;;;;;;;;;;5136532;27;20201;-79
2023/05/10 08:08:34;;;;;;;2.37;0.87;;;14.10;99.90;;;;;;5135028;28;20199;-80
2023/05/10 08:11:00;;;;;;;3.47;1.00;;;14.10;99.90;;;;;;5134998;28;20179;-79
2023/05/10 08:13:26;;;;;;;2.87;0.90;;;14.10;99.90;;;;;;5134527;28;20343;-80
2023/05/10 08:15:52;;;;;;;0.93;0.73;;;;;;;;;;5134988;28;20191;-80
2023/05/10 08:18:19;;;;;;;0.90;0.80;;;13.90;99.90;;;;;;5136175;27;20187;-80
2023/05/10 08:20:44;;;;;;;0.60;0.60;;;13.90;99.90;;;;;;5134602;28;20538;-80
2023/05/10 08:23:12;;;;;;;1.10;0.90;;;14.10;99.90;;;;;;5135939;27;20179;-80
2023/05/10 08:25:38;;;;;;;4.00;0.90;;;14.30;99.90;;;;;;5123536;28;20179;-80
2023/05/10 08:28:03;;;;;;;3.07;0.80;;;14.40;99.90;;;;;;5120961;28;20203;-80
2023/05/10 08:30:29;;;;;;;0.83;0.83;;;14.30;99.90;;;;;;5122111;28;20175;-80
2023/05/10 08:32:55;;;;;;;1.77;1.00;;;14.10;99.90;;;;;;5122043;28;20264;-80
2023/05/10 08:35:20;;;;;;;2.03;1.30;;;13.90;99.90;;;;;;5122239;28;20199;-80
2023/05/10 08:37:46;;;;;;;1.53;1.13;;;13.40;99.90;;;;;;5122193;28;20198;-80
2023/05/10 08:40:12;;;;;;;1.13;0.90;;;;;;;;;;5120983;28;20200;-80
2023/05/10 08:42:42;;;;;;;1.00;0.83;;;13.10;99.90;;;;;;5120899;28;20279;-80
2023/05/10 08:45:09;;;;;;;0.93;0.83;;;13.10;99.90;;;;;;5122380;28;20172;-80
2023/05/10 08:51:01;;;;;;;3.03;0.83;;;12.60;99.90;;;;;;5138035;27;20272;-80
2023/05/10 08:55:07;;;;;;;0.83;0.67;;;12.60;99.90;;;;;;5139209;27;20267;-80
2023/05/10 08:57:32;;;;;;;0.97;0.97;;;12.90;99.90;;;;;;5120821;28;20175;-80
2023/05/10 09:00:01;;;;;;;1.20;0.87;;;13.10;99.90;;;;;;5137194;28;20183;-80
2023/05/10 09:02:26;;;;;;;1.77;1.00;;;13.10;99.90;;;;;;5138224;27;20167;-80
2023/05/10 09:04:52;;;;;;;1.40;1.00;;;;;;;;;;5138008;27;20167;-80
2023/05/10 09:07:19;;;;;;;1.20;0.80;;;13.30;99.90;;;;;;5138273;28;20691;-80
2023/05/10 09:09:46;;;;;;;2.10;1.17;;;13.20;99.90;;;;;;5136942;28;20205;-80
2023/05/10 09:12:15;;;;;;;1.20;1.10;;;13.10;99.90;;;;;;5138490;27;20173;-80
2023/05/10 09:14:41;;;;;;;1.13;1.03;;;12.90;99.90;;;;;;5137596;27;20195;-80
2023/05/10 09:17:07;;;;;;;1.17;1.07;;;13.20;99.90;;;;;;5138118;27;20203;-80
2023/05/10 09:19:33;;;;;;;3.67;1.77;;;;;;;;;;5137454;27;20194;-80
2023/05/10 09:22:01;;;;;;;2.27;0.97;;;13.40;99.90;;;;;;5136628;28;20202;-80
2023/05/10 09:24:27;;;;;;;1.00;0.90;;;;;;;;;;5135461;28;20179;-80
2023/05/10 09:26:53;;;;;;;3.63;1.00;;;13.40;99.90;;;;;;5137273;28;20175;-80
2023/05/10 09:29:18;;;;;;;1.23;1.10;;;13.40;99.90;;;;;;5136818;27;20190;-81
2023/05/10 09:31:48;;;;;;;1.23;0.80;;;13.40;99.90;;;;;;5136901;27;20559;-81
2023/05/10 09:34:28;;;;;;;1.13;1.03;;;13.70;99.90;;;;;;5135080;28;20194;-81
2023/05/10 09:37:00;;;;;;;1.00;0.90;;;13.80;99.90;;;;;;5135595;28;20171;-81
2023/05/10 09:39:33;;;;;;;2.93;0.97;;;13.90;99.90;;;;;;5135289;28;20258;-80
2023/05/10 09:42:01;;;;;;;1.30;0.90;;;14.00;99.90;;;;;;5136613;27;20171;-81
2023/05/10 09:44:27;;;;;;;2.50;0.90;;;13.60;99.90;;;;;;5134672;28;20175;-80
2023/05/10 09:46:53;;;;;;;2.37;1.40;;;;;;;;;;5136185;27;20170;-80
2023/05/10 09:49:20;;;;;;;1.13;0.70;;;13.90;99.90;;;;;;5135691;28;20186;-81
2023/05/10 09:51:46;;;;;;;1.33;1.13;;;13.90;99.90;;;;;;5138396;28;20247;-80
2023/05/10 09:54:14;;;;;;;3.40;2.73;;;14.20;99.90;;;;;;5135834;28;20203;-80
2023/05/10 09:56:41;;;;;;;5.93;3.60;;;15.00;99.90;;;;;;5136239;28;20171;-80
2023/05/10 09:59:10;;;;;;;2.00;1.40;;;15.20;99.90;;;;;;5137116;27;20247;-80
2023/05/10 10:01:36;;;;;;;1.17;0.80;;;15.30;99.90;;;;;;5137367;27;20170;-80
2023/05/10 10:04:07;;;;;;;1.10;1.00;;;15.30;99.90;;;;;;5136030;28;20258;-80
2023/05/10 10:06:39;;;;;;;6.20;0.93;;;15.10;99.90;;;;;;5122131;28;20206;-80
2023/05/10 10:09:08;;;;;;;2.70;0.90;;;14.80;99.90;;;;;;5123254;28;20195;-80
2023/05/10 10:11:35;;;;;;;1.87;0.83;;;14.60;99.90;;;;;;5124060;28;20206;-81
2023/05/10 10:14:01;;;;;;;1.57;0.90;;;14.20;99.90;;;;;;5118833;28;20234;-77
2023/05/10 10:16:31;;;;;;;0.97;0.77;;;13.90;99.90;;;;;;5117123;28;20252;-77
2023/05/10 10:18:57;;;;;;;1.63;1.37;;;13.60;99.90;;;;;;5115258;28;20561;-77
2023/05/10 10:21:23;;;;;;;0.77;0.70;;;13.50;99.90;;;;;;5116572;28;20168;-77
2023/05/10 10:23:49;;;;;;;0.73;0.73;;;13.40;99.90;;;;;;5115144;28;20208;-77
2023/05/10 10:26:17;;;;;;;4.87;0.90;;;13.30;99.90;;;;;;5115196;28;20171;-77
2023/05/10 10:28:47;;;;;;;1.13;1.00;;;13.30;99.90;;;;;;5115454;28;20564;-77
2023/05/10 10:31:34;;;;;;;0.97;0.90;;;13.40;99.90;;;;;;5114713;28;20267;-77
2023/05/10 10:34:06;;;;;;;1.20;0.83;;;13.50;99.90;;;;;;5116266;28;20191;-77
2023/05/10 10:36:33;;;;;;;0.80;0.70;;;13.80;99.90;;;;;;5116293;28;20154;-77
2023/05/10 10:39:08;;;;;;;1.33;0.70;;;13.80;99.90;;;;;;5116305;28;20267;-77
2023/05/10 10:41:42;;;;;;;0.50;0.50;;;13.90;99.90;;;;;;5114721;28;20186;-77
2023/05/10 10:44:41;;;;;;;1.23;0.80;;;13.90;99.90;;;;;;5116432;28;20621;-77
2023/05/10 10:47:11;;;;;;;5.03;1.60;;;13.70;99.90;;;;;;5114772;28;20622;-77
2023/05/10 10:49:39;;;;;;;2.47;1.70;;;13.70;99.90;;;;;;5115924;28;20274;-77
2023/05/10 10:52:29;;;;;;;3.23;1.50;;;13.70;99.90;;;;;;5116182;28;20179;-77
2023/05/10 10:55:10;;;;;;;1.57;0.90;;;13.70;99.90;;;;;;5114657;28;20210;-77
2023/05/10 10:57:51;;;;;;;2.00;1.07;;;13.60;99.90;;;;;;5118557;28;20200;-81
2023/05/10 11:00:24;;;;;;;0.80;0.80;;;13.50;99.90;;;;;;5119809;28;20175;-81
2023/05/10 11:03:06;;;;;;;2.33;1.00;;;13.60;99.90;;;;;;5120239;28;20521;-81
2023/05/10 11:05:47;;;;;;;5.80;1.90;;;13.60;99.90;;;;;;5120299;28;20172;-80
2023/05/10 11:08:19;;;;;;;1.30;0.90;;;13.50;99.90;;;;;;5121745;28;20653;-81
2023/05/10 11:10:58;;;;;;;1.60;0.80;;;13.50;99.90;;;;;;5121468;28;20168;-81
2023/05/10 11:13:48;;;;;;;1.80;1.00;;;13.40;99.90;;;;;;5122626;28;20199;-81
2023/05/10 11:16:17;;;;;;;1.57;1.00;;;13.40;99.90;;;;;;5114116;28;20187;-81
2023/05/10 11:19:13;;;;;;;1.50;1.00;;;13.40;99.90;;;;;;5121322;28;20180;-81
2023/05/10 11:22:12;;;;;;;1.47;1.00;;;13.40;99.90;;;;;;5107996;28;20192;-81
2023/05/10 11:24:38;;;;;;;0.90;0.80;;;13.50;99.90;;;;;;5119998;28;20174;-81
2023/05/10 11:27:05;;;;;;;2.87;1.17;;;13.50;99.90;;;;;;5120359;28;20207;-81
2023/05/10 11:29:30;;;;;;;1.47;1.00;;;13.50;99.90;;;;;;5118638;28;20244;-81
2023/05/10 11:31:58;;;;;;;0.90;0.77;;;13.70;99.90;;;;;;5120377;28;20179;-82
2023/05/10 11:34:33;;;;;;;1.73;1.30;;;13.70;99.90;;;;;;5120155;28;20244;-81
2023/05/10 11:36:59;;;;;;;1.23;0.97;;;14.00;99.90;;;;;;5120225;28;20193;-81
2023/05/10 11:39:30;;;;;;;1.97;1.17;;;14.00;99.90;;;;;;5118308;28;20191;-81
2023/05/10 11:41:57;;;;;;;1.00;0.90;;;;;;;;;;5120651;28;20172;-81
2023/05/10 11:44:23;;;;;;;1.40;1.00;;;;;;;;;;5123194;28;20183;-80
2023/05/10 11:46:49;;;;;;;1.00;0.83;;;14.00;99.90;;;;;;5122251;28;20176;-81
2023/05/10 11:49:15;;;;;;;1.77;1.10;;;13.90;99.90;;;;;;5120301;28;20228;-81
2023/05/10 11:51:43;;;;;;;2.87;1.20;;;13.90;99.90;;;;;;5121191;28;20175;-80
2023/05/10 11:54:11;;;;;;;0.87;0.70;;;13.80;99.90;;;;;;5121443;28;20220;-81
2023/05/10 11:56:40;;;;;;;1.23;1.10;;;13.60;99.90;;;;;;5121275;28;20168;-81
2023/05/10 11:59:07;;;;;;;1.23;1.00;;;13.30;99.90;;;;;;5120187;28;20199;-81
2023/05/10 12:01:33;;;;;;;1.37;1.20;;;;;;;;;;5119398;28;20191;-81
2023/05/10 12:04:00;;;;;;;2.13;1.00;;;13.20;99.90;;;;;;5120766;28;20218;-81
2023/05/10 12:06:31;;;;;;;1.93;0.80;;;13.20;99.90;;;;;;5119412;28;20179;-81
2023/05/10 12:08:57;;;;;;;1.80;0.93;;;13.20;99.90;;;;;;5121698;28;20564;-81
2023/05/10 12:11:28;;;;;;;1.87;0.90;;;13.20;99.90;;;;;;5119803;28;20252;-81
2023/05/10 12:13:54;;;;;;;1.30;0.90;;;13.20;99.90;;;;;;5120654;28;20198;-81
2023/05/10 12:16:21;;;;;;;1.23;0.90;;;;;;;;;;5119135;28;20588;-81
2023/05/10 12:18:56;;;;;;;2.77;1.00;;;13.10;99.90;;;;;;5118113;28;20717;-81
2023/05/10 12:27:34;;;;;;;4.83;1.00;;;12.00;99.90;;;;;;5096281;27;20537;-80
2023/05/10 12:35:59;;;;;;;4.07;1.13;;;11.20;99.90;;;;;;5138161;27;20271;-79
2023/05/10 12:42:24;;;;;;;1.80;0.80;;;;;;;;;;5159010;27;20357;-79
2023/05/10 12:47:50;;;;;;;1.57;1.10;;;10.90;99.90;;;;;;5078560;28;20561;-79
2023/05/10 12:52:11;;;;;;;1.80;0.90;;;11.00;99.90;;;;;;5137800;27;20278;-81
2023/05/10 12:56:11;;;;;;;0.80;0.80;;;11.00;99.90;;;;;;5136003;27;20278;-78
2023/05/10 12:59:46;;;;;;;2.00;0.60;;;11.20;99.90;;;;;;5114484;27;20294;-79
2023/05/10 13:03:30;;;;;;;0.73;0.70;;;11.20;99.90;;;;;;5134562;27;20271;-78
2023/05/10 13:05:56;;;;;;;0.80;0.70;;;11.10;99.90;;;;;;5117301;28;20182;-78
2023/05/10 13:08:21;;;;;;;1.57;0.83;;;11.20;99.90;;;;;;5120987;28;20191;-79
2023/05/10 13:10:47;;;;;;;1.10;0.70;;;11.10;99.90;;;;;;5136763;27;20163;-80
2023/05/10 13:13:31;;;;;;;1.00;0.70;;;;;;;;;;5137471;27;20273;-79
2023/05/10 13:18:30;;;;;;;1.47;0.80;;;11.10;99.90;;;;;;5137812;27;20631;-79
2023/05/10 13:20:56;;;;;;;1.83;0.80;;;11.10;99.90;;;;;;5136818;27;20239;-79
2023/05/10 13:25:29;;;;;;;0.90;0.70;;;11.20;99.90;;;;;;5137617;27;20588;-79
2023/05/10 13:27:54;;;;;;;1.00;0.77;;;11.30;99.90;;;;;;5118277;28;20708;-80
2023/05/10 13:30:20;;;;;;;1.30;0.87;;;;;;;;;;5135821;28;20261;-79
2023/05/10 13:32:46;;;;;;;1.40;0.80;;;11.30;99.90;;;;;;5135372;28;20174;-79
2023/05/10 13:35:32;;;;;;;0.90;0.70;;;11.20;99.90;;;;;;5138012;27;20267;-78
2023/05/10 13:40:36;;;;;;;2.90;0.80;;;11.00;99.90;;;;;;5131134;27;20273;-79
2023/05/10 13:45:33;;;;;;;1.90;1.00;;;11.20;99.90;;;;;;5138617;27;20282;-79
2023/05/10 13:47:59;;;;;;;0.90;0.77;;;;;;;;;;5138491;28;20218;-79
2023/05/10 13:50:25;;;;;;;0.90;0.80;;;;;;;;;;5138282;28;20167;-79
2023/05/10 13:53:33;;;;;;;2.70;1.00;;;;;;;;;;5138470;27;20271;-79
2023/05/10 13:58:36;;;;;;;0.80;0.80;;;11.10;99.90;;;;;;5138878;27;20283;-79
2023/05/10 14:02:33;;;;;;;1.20;1.00;;;11.10;99.90;;;;;;5118807;27;20279;-79
2023/05/10 14:07:41;;;;;;;0.90;0.80;;;;;;;;;;5137644;27;20265;-79
2023/05/10 14:12:02;;;;;;;1.03;0.60;;;;;;;;;;5138253;27;20271;-79
2023/05/10 14:16:07;;;;;;;1.73;0.87;;;;;;;;;;5138024;27;20272;-80
2023/05/10 14:19:59;;;;;;;0.57;0.57;;;;;;;;;;5138151;27;20290;-79
2023/05/10 14:23:46;;;;;;;0.60;0.50;;;11.10;99.90;;;;;;5138419;27;20275;-79
2023/05/10 14:27:48;;;;;;;0.60;0.50;;;;;;;;;;5076918;28;20582;-79
2023/05/10 14:31:56;;;;;;;0.90;0.50;;;;;;;;;;5159390;27;20268;-80
2023/05/10 14:35:57;;;;;;;2.27;0.80;;;;;;;;;;5138379;27;20275;-79
2023/05/10 14:39:52;;;;;;;1.63;0.77;;;;;;;;;;5137490;27;20291;-79
2023/05/10 14:44:06;;;;;;;3.23;2.20;;;;;;;;;;5138582;27;20273;-79
2023/05/10 14:48:49;;;;;;;7.77;3.43;;;;;;;;;;5169170;27;20559;-80
2023/05/10 14:54:24;;;;;;;10.67;5.10;;;10.90;99.90;;;;;;5117857;27;20282;-80
2023/05/10 15:01:10;;;;;;;2.27;1.30;;;;;;;;;;5137477;27;20272;-79
2023/05/10 15:07:34;;;;;;;1.67;0.90;;;10.80;99.90;;;;;;5137285;27;20279;-80
2023/05/10 15:14:43;;;;;;;1.10;0.80;;;10.70;99.90;;;;;;5079100;28;20608;-79
2023/05/10 15:20:58;;;;;;;2.13;1.13;;;10.70;99.90;;;;;;5096433;28;20538;-79
2023/05/10 15:26:15;;;;;;;1.73;1.43;;;10.70;99.90;;;;;;5136764;27;20274;-79
